Time;durP1;ratioP1;P1;durP2;ratioP2;P2;SDS_P1;SDS_P2;PMS_P1;PMS_P2;Temp;Humidity;BMP_temperature;BMP_pressure;BME280_temperature;BME280_humidity;BME280_pressure;Samples;Min_cycle;Max_cycle;Signal;HPM_P1;HPM_P2
2022/03/09 00:02:31;;;;;;;7.37;4.80;;;3.50;62.40;;;;;;10402343;28;20314;-76
2022/03/09 00:07:40;;;;;;;7.47;4.77;;;3.50;63.00;;;;;;10404372;28;20636;-75
2022/03/09 00:24:14;;;;;;;7.40;4.43;;;3.50;60.30;;;;;;10405235;28;20308;-75
2022/03/09 00:29:44;;;;;;;6.50;3.97;;;3.50;61.00;;;;;;10393863;28;20701;-76
2022/03/09 00:35:01;;;;;;;9.30;4.20;;;3.40;60.60;;;;;;10392328;28;20240;-76
2022/03/09 00:40:04;;;;;;;7.57;4.50;;;3.50;60.80;;;;;;10381474;28;20790;-76
2022/03/09 00:45:14;;;;;;;6.93;4.50;;;3.40;61.60;;;;;;10390192;28;20598;-74
2022/03/09 00:50:26;;;;;;;8.70;5.03;;;3.20;63.30;;;;;;10398140;28;20184;-75
2022/03/09 00:55:27;;;;;;;7.17;5.33;;;3.00;65.40;;;;;;10412433;28;20287;-76
2022/03/09 01:00:37;;;;;;;7.37;4.83;;;2.90;65.20;;;;;;10398996;28;20337;-75
2022/03/09 01:05:44;;;;;;;8.43;4.63;;;2.80;64.00;;;;;;10389556;28;20278;-76
2022/03/09 01:10:47;;;;;;;6.87;4.73;;;2.90;63.80;;;;;;10383398;28;20262;-75
2022/03/09 01:15:56;;;;;;;7.47;4.70;;;2.80;63.70;;;;;;10390092;28;20220;-75
2022/03/09 01:21:06;;;;;;;7.50;4.33;;;2.80;64.80;;;;;;10395960;28;20233;-76
2022/03/09 01:26:09;;;;;;;9.67;4.97;;;2.90;63.80;;;;;;10403417;28;20267;-75
2022/03/09 01:31:46;;;;;;;6.90;4.10;;;3.10;62.80;;;;;;10408298;28;20251;-75
2022/03/09 01:36:59;;;;;;;8.00;4.33;;;3.30;62.00;;;;;;10396376;28;20233;-74
2022/03/09 01:42:00;;;;;;;6.57;4.20;;;3.30;62.00;;;;;;10401345;28;20291;-76
2022/03/09 01:47:00;;;;;;;7.77;4.43;;;3.30;62.10;;;;;;10400562;28;20218;-75
2022/03/09 01:52:01;;;;;;;6.93;4.37;;;3.30;62.10;;;;;;10398972;28;20217;-74
2022/03/09 01:57:03;;;;;;;6.83;3.97;;;3.30;61.70;;;;;;10406261;28;20223;-75
2022/03/09 02:02:12;;;;;;;6.97;4.23;;;3.30;61.70;;;;;;10406887;28;20221;-73
2022/03/09 02:07:14;;;;;;;6.83;4.70;;;3.20;62.60;;;;;;10393785;28;20743;-74
2022/03/09 02:12:17;;;;;;;8.93;4.20;;;3.10;63.10;;;;;;10403534;28;20240;-75
2022/03/09 02:17:59;;;;;;;7.80;4.80;;;3.10;63.60;;;;;;10401769;28;20212;-75
2022/03/09 02:23:01;;;;;;;8.60;5.10;;;3.00;64.10;;;;;;10377627;28;20220;-75
2022/03/09 02:28:02;;;;;;;6.57;4.80;;;2.90;64.80;;;;;;10401585;28;20213;-75
2022/03/09 02:33:09;;;;;;;11.20;5.03;;;2.70;66.30;;;;;;10401344;28;20212;-76
2022/03/09 02:38:17;;;;;;;7.13;5.30;;;2.60;66.20;;;;;;10393065;28;20221;-76
2022/03/09 02:43:23;;;;;;;7.77;5.20;;;2.50;67.00;;;;;;10396797;28;20225;-76
2022/03/09 02:48:49;;;;;;;8.83;4.77;;;2.40;67.20;;;;;;10371982;28;20232;-74
2022/03/09 02:53:53;;;;;;;8.47;5.37;;;2.30;67.40;;;;;;10381036;28;20288;-75
2022/03/09 02:59:04;;;;;;;8.83;5.23;;;2.30;67.70;;;;;;10377202;28;20221;-75
2022/03/09 03:04:23;;;;;;;7.60;4.73;;;2.20;68.00;;;;;;10385451;28;20231;-75
2022/03/09 03:09:49;;;;;;;7.23;5.43;;;2.10;69.40;;;;;;10385177;28;20221;-75
2022/03/09 03:14:59;;;;;;;8.63;5.07;;;1.90;70.40;;;;;;10387394;28;20220;-75
2022/03/09 03:20:11;;;;;;;7.83;5.37;;;1.70;70.80;;;;;;10393837;28;20213;-75
2022/03/09 03:25:23;;;;;;;8.23;5.40;;;1.70;71.60;;;;;;10394622;28;20922;-75
2022/03/09 03:30:24;;;;;;;10.43;5.37;;;1.60;72.70;;;;;;10388996;28;20270;-75
2022/03/09 03:35:41;;;;;;;10.57;5.80;;;1.50;73.80;;;;;;10405152;28;20297;-75
2022/03/09 03:40:52;;;;;;;9.53;5.70;;;1.50;73.80;;;;;;10389454;28;20224;-74
2022/03/09 03:45:56;;;;;;;7.87;5.67;;;1.50;73.00;;;;;;10406950;28;20213;-74
2022/03/09 03:51:08;;;;;;;9.07;5.40;;;1.50;73.00;;;;;;10405998;28;20220;-75
2022/03/09 03:56:16;;;;;;;10.67;5.50;;;1.40;73.00;;;;;;10387529;28;20216;-74
2022/03/09 04:01:20;;;;;;;14.13;7.13;;;1.40;73.70;;;;;;10404061;28;20257;-76
2022/03/09 04:06:23;;;;;;;12.17;6.60;;;1.50;73.80;;;;;;10404769;28;20332;-76
2022/03/09 04:11:30;;;;;;;9.07;6.27;;;1.50;73.60;;;;;;10406614;28;20787;-75
2022/03/09 04:16:33;;;;;;;11.87;6.60;;;1.50;74.10;;;;;;10395292;28;20370;-74
2022/03/09 04:21:35;;;;;;;10.37;6.43;;;1.50;74.80;;;;;;10392738;28;20240;-75
2022/03/09 04:26:43;;;;;;;10.33;6.67;;;1.40;75.10;;;;;;10387685;28;20225;-74
2022/03/09 04:31:48;;;;;;;12.17;6.67;;;1.30;75.60;;;;;;10397623;28;20684;-75
2022/03/09 04:36:54;;;;;;;14.27;7.43;;;1.30;76.00;;;;;;10400062;28;20237;-76
2022/03/09 04:42:03;;;;;;;12.90;7.67;;;1.30;76.50;;;;;;10394321;28;20233;-73
2022/03/09 04:47:11;;;;;;;13.70;8.70;;;1.30;77.30;;;;;;10384276;28;20262;-74
2022/03/09 04:52:14;;;;;;;12.97;7.53;;;1.30;77.70;;;;;;10392528;28;20223;-74
2022/03/09 04:57:15;;;;;;;13.37;7.93;;;1.20;78.00;;;;;;10390897;28;20280;-74
2022/03/09 05:02:16;;;;;;;10.77;7.10;;;1.10;79.20;;;;;;10381052;28;20259;-73
2022/03/09 05:07:16;;;;;;;12.97;8.13;;;1.00;79.70;;;;;;10382334;28;20220;-74
2022/03/09 05:12:17;;;;;;;11.97;7.77;;;0.90;79.40;;;;;;10390142;28;20286;-73
2022/03/09 05:17:17;;;;;;;9.93;7.17;;;0.80;79.60;;;;;;10397117;28;20767;-73
2022/03/09 05:22:18;;;;;;;11.57;7.20;;;0.80;80.00;;;;;;10385794;28;20249;-74
2022/03/09 05:27:19;;;;;;;11.53;6.30;;;0.70;80.30;;;;;;10384462;28;20217;-72
2022/03/09 05:32:19;;;;;;;9.37;5.90;;;0.80;80.20;;;;;;10388879;28;20208;-73
2022/03/09 05:37:21;;;;;;;9.83;5.10;;;0.90;79.00;;;;;;10390600;28;20268;-75
2022/03/09 05:42:22;;;;;;;8.53;5.57;;;0.90;78.10;;;;;;10408812;28;20264;-73
2022/03/09 05:47:22;;;;;;;8.93;5.23;;;1.10;77.10;;;;;;10399823;28;20244;-74
2022/03/09 05:52:23;;;;;;;6.93;4.90;;;1.20;76.20;;;;;;10392932;28;20239;-74
2022/03/09 05:57:24;;;;;;;9.90;5.47;;;1.30;75.60;;;;;;10390579;28;20217;-75
2022/03/09 06:02:25;;;;;;;9.67;5.33;;;1.40;75.10;;;;;;10387320;28;20696;-74
2022/03/09 06:07:25;;;;;;;7.53;5.23;;;1.50;74.80;;;;;;10402109;28;20794;-74
2022/03/09 06:12:26;;;;;;;7.57;5.20;;;1.50;74.80;;;;;;10399582;28;20248;-74
2022/03/09 06:17:27;;;;;;;11.87;6.63;;;1.50;76.00;;;;;;10395818;28;20849;-71
2022/03/09 06:22:27;;;;;;;11.63;6.80;;;1.40;77.20;;;;;;10395121;28;20279;-71
2022/03/09 06:27:28;;;;;;;12.07;7.50;;;1.40;78.00;;;;;;10387877;28;20857;-71
2022/03/09 06:32:28;;;;;;;13.47;7.77;;;1.40;79.70;;;;;;10392522;28;20225;-70
2022/03/09 06:37:29;;;;;;;26.90;9.20;;;1.40;80.00;;;;;;10395547;28;20633;-69
2022/03/09 06:42:33;;;;;;;19.00;8.17;;;1.60;78.00;;;;;;10382310;28;20252;-71
2022/03/09 06:47:38;;;;;;;13.23;7.10;;;1.80;77.90;;;;;;10393077;28;20225;-69
2022/03/09 06:52:39;;;;;;;14.63;6.13;;;2.00;76.80;;;;;;10394089;28;20217;-73
2022/03/09 06:57:40;;;;;;;8.80;6.00;;;2.20;76.30;;;;;;10401655;28;20646;-73
2022/03/09 07:02:42;;;;;;;8.77;6.10;;;2.30;75.30;;;;;;10393184;28;20244;-73
2022/03/09 07:07:43;;;;;;;11.93;6.93;;;2.50;74.80;;;;;;10400780;28;20222;-73
2022/03/09 07:12:45;;;;;;;11.07;6.63;;;3.10;73.60;;;;;;10387461;28;20220;-73
2022/03/09 07:17:47;;;;;;;10.83;5.77;;;4.00;69.60;;;;;;10393955;28;20236;-73
2022/03/09 07:22:51;;;;;;;8.83;5.80;;;4.50;67.20;;;;;;10397898;28;20596;-73
2022/03/09 07:27:52;;;;;;;7.43;5.57;;;4.50;65.80;;;;;;10397769;28;20229;-73
2022/03/09 07:32:52;;;;;;;7.63;4.93;;;4.50;64.80;;;;;;10401148;28;20217;-73
2022/03/09 07:37:53;;;;;;;11.00;5.07;;;4.60;64.10;;;;;;10392496;28;20246;-74
2022/03/09 07:42:53;;;;;;;10.80;5.40;;;5.30;61.40;;;;;;10388300;28;20213;-72
2022/03/09 07:47:54;;;;;;;7.67;5.20;;;8.30;55.60;;;;;;10403723;28;20228;-72
2022/03/09 07:52:55;;;;;;;7.30;5.00;;;11.20;47.30;;;;;;10393664;28;20223;-74
2022/03/09 07:57:55;;;;;;;11.83;5.33;;;12.60;44.40;;;;;;10388051;28;20223;-73
2022/03/09 08:02:56;;;;;;;7.63;5.57;;;13.80;41.60;;;;;;10390031;28;20249;-74
2022/03/09 08:07:57;;;;;;;7.20;5.90;;;16.40;37.30;;;;;;10390117;28;20244;-73
2022/03/09 08:12:57;;;;;;;9.90;5.73;;;19.20;33.10;;;;;;10389849;28;20304;-72
2022/03/09 08:17:58;;;;;;;12.33;7.63;;;22.30;28.60;;;;;;10389799;28;20223;-73
2022/03/09 08:22:58;;;;;;;17.67;8.70;;;24.10;27.60;;;;;;10386825;28;20266;-74
2022/03/09 08:28:00;;;;;;;13.00;8.67;;;24.20;27.70;;;;;;10386436;28;20299;-74
2022/03/09 08:33:01;;;;;;;10.80;8.27;;;24.30;27.40;;;;;;10395849;28;20211;-75
2022/03/09 08:38:02;;;;;;;12.30;7.67;;;25.50;26.10;;;;;;10393194;28;20220;-76
2022/03/09 08:43:03;;;;;;;8.57;7.30;;;26.00;25.30;;;;;;10388154;28;20235;-75
2022/03/09 08:48:05;;;;;;;10.10;6.53;;;26.60;24.70;;;;;;10395017;28;20213;-73
2022/03/09 08:53:05;;;;;;;11.67;6.87;;;27.20;24.10;;;;;;10395424;28;20220;-74
2022/03/09 08:58:09;;;;;;;20.40;8.07;;;27.70;23.60;;;;;;10385156;28;20225;-74
2022/03/09 09:03:10;;;;;;;13.80;7.93;;;28.00;23.00;;;;;;10388010;28;20719;-74
2022/03/09 09:08:10;;;;;;;11.90;7.33;;;28.00;23.20;;;;;;10392055;28;20305;-74
2022/03/09 09:13:11;;;;;;;9.13;7.37;;;28.90;22.40;;;;;;10390720;28;20699;-74
2022/03/09 09:18:12;;;;;;;10.57;6.70;;;28.80;22.50;;;;;;10386235;28;20228;-74
2022/03/09 09:23:12;;;;;;;9.67;7.37;;;29.80;21.10;;;;;;10392801;28;20225;-73
2022/03/09 09:28:13;;;;;;;10.53;6.80;;;29.70;21.10;;;;;;10396546;28;20311;-72
2022/03/09 09:33:14;;;;;;;10.27;6.37;;;29.70;20.60;;;;;;10400506;28;20239;-73
2022/03/09 09:38:15;;;;;;;6.60;5.83;;;29.80;20.80;;;;;;10406824;28;20247;-74
2022/03/09 09:43:16;;;;;;;10.87;6.77;;;30.50;20.20;;;;;;10396678;28;20767;-74
2022/03/09 09:48:19;;;;;;;9.27;6.70;;;30.50;20.00;;;;;;10391754;28;20220;-73
2022/03/09 09:53:22;;;;;;;7.57;6.10;;;30.60;19.50;;;;;;10395516;28;20217;-74
2022/03/09 09:58:23;;;;;;;9.47;6.50;;;31.20;19.40;;;;;;10370955;28;20271;-74
2022/03/09 10:03:24;;;;;;;9.23;6.70;;;32.00;19.70;;;;;;10390725;28;20229;-74
2022/03/09 10:08:24;;;;;;;9.47;6.17;;;32.50;18.70;;;;;;10397232;28;20585;-74
2022/03/09 10:13:28;;;;;;;9.10;5.97;;;32.30;18.50;;;;;;10391905;28;20259;-74
2022/03/09 10:18:28;;;;;;;10.47;5.97;;;32.40;18.30;;;;;;10391358;28;20351;-76
2022/03/09 10:23:53;;;;;;;8.87;6.70;;;32.40;18.20;;;;;;10387584;28;20820;-73
2022/03/09 10:29:03;;;;;;;7.43;5.73;;;32.90;18.50;;;;;;10396182;28;20232;-74
2022/03/09 10:34:12;;;;;;;6.63;5.93;;;33.40;17.90;;;;;;10395952;28;20224;-75
2022/03/09 10:39:14;;;;;;;6.70;6.00;;;33.40;17.50;;;;;;10391227;28;20217;-74
2022/03/09 10:44:15;;;;;;;6.83;6.03;;;33.70;17.70;;;;;;10386095;28;20597;-74
2022/03/09 10:49:19;;;;;;;6.87;6.23;;;32.50;17.30;;;;;;10398979;28;20223;-74
2022/03/09 10:54:29;;;;;;;8.13;6.40;;;32.10;18.00;;;;;;10386584;28;20586;-74
2022/03/09 10:59:46;;;;;;;8.90;6.23;;;32.20;18.20;;;;;;10392032;28;20216;-74
2022/03/09 11:05:06;;;;;;;7.87;7.07;;;30.70;18.50;;;;;;10385116;28;20615;-74
2022/03/09 11:10:09;;;;;;;8.93;6.70;;;29.20;19.90;;;;;;10377120;28;20689;-74
2022/03/09 11:15:12;;;;;;;7.90;7.10;;;31.80;18.50;;;;;;10389770;28;20211;-74
2022/03/09 11:20:16;;;;;;;8.00;7.13;;;33.00;17.80;;;;;;10387950;28;20179;-73
2022/03/09 11:25:24;;;;;;;9.93;6.97;;;33.50;17.50;;;;;;10389746;28;20208;-73
2022/03/09 11:30:28;;;;;;;12.47;7.97;;;33.70;17.40;;;;;;10392807;28;20708;-73
2022/03/09 11:35:40;;;;;;;11.47;7.87;;;31.40;18.00;;;;;;10399127;28;20240;-74
2022/03/09 11:41:21;;;;;;;11.07;8.00;;;25.00;21.80;;;;;;10384935;28;20242;-74
2022/03/09 11:46:22;;;;;;;8.63;7.50;;;20.80;26.40;;;;;;10396748;28;20204;-73
2022/03/09 11:51:27;;;;;;;13.37;8.23;;;18.60;29.30;;;;;;10392350;28;20302;-73
2022/03/09 11:56:30;;;;;;;13.03;7.67;;;17.20;31.20;;;;;;10397676;28;20319;-74
2022/03/09 12:01:31;;;;;;;10.27;7.80;;;16.00;32.60;;;;;;10384357;28;20313;-74
2022/03/09 12:06:43;;;;;;;10.43;7.43;;;15.00;34.70;;;;;;10389687;28;20769;-73
2022/03/09 12:12:06;;;;;;;19.03;7.97;;;14.40;36.20;;;;;;10383158;28;20226;-73
2022/03/09 12:17:07;;;;;;;10.33;8.10;;;14.10;37.10;;;;;;10400022;28;20228;-72
2022/03/09 12:22:08;;;;;;;10.23;7.97;;;14.10;37.10;;;;;;10389465;28;20309;-74
2022/03/09 12:27:22;;;;;;;10.60;7.40;;;13.90;37.20;;;;;;10389178;28;20334;-73
2022/03/09 12:32:23;;;;;;;16.83;8.13;;;14.00;37.40;;;;;;10388221;28;20226;-73
2022/03/09 12:37:25;;;;;;;10.90;7.47;;;14.00;37.50;;;;;;10393129;28;20283;-73
2022/03/09 12:42:28;;;;;;;10.97;7.63;;;14.00;37.50;;;;;;10388933;28;20307;-72
2022/03/09 12:47:34;;;;;;;11.17;8.17;;;13.90;37.60;;;;;;10392018;28;20696;-74
2022/03/09 12:52:41;;;;;;;11.73;7.77;;;14.00;38.70;;;;;;10403455;28;20529;-72
2022/03/09 12:57:52;;;;;;;11.00;8.07;;;13.90;37.90;;;;;;10405397;28;20220;-74
2022/03/09 13:03:00;;;;;;;9.93;7.63;;;13.80;38.00;;;;;;10401946;28;20231;-72
2022/03/09 13:08:06;;;;;;;9.07;7.17;;;13.60;38.30;;;;;;10400562;28;20616;-72
2022/03/09 13:13:07;;;;;;;13.33;7.93;;;13.70;38.10;;;;;;10396192;28;20221;-72
2022/03/09 13:18:10;;;;;;;13.20;8.37;;;13.70;38.80;;;;;;10398445;28;20217;-72
2022/03/09 13:23:39;;;;;;;15.80;7.87;;;13.60;38.30;;;;;;10398587;28;20233;-74
2022/03/09 13:28:40;;;;;;;12.50;8.03;;;13.60;38.90;;;;;;10402082;28;20221;-72
2022/03/09 13:33:40;;;;;;;12.23;8.20;;;13.50;38.30;;;;;;10410542;28;20219;-72
2022/03/09 13:38:56;;;;;;;10.50;7.90;;;13.40;38.70;;;;;;10401284;28;20220;-74
2022/03/09 13:43:57;;;;;;;13.77;8.70;;;13.20;38.40;;;;;;10410452;28;20226;-73
2022/03/09 13:49:08;;;;;;;13.87;8.13;;;13.40;38.50;;;;;;10395613;28;20771;-72
2022/03/09 13:54:09;;;;;;;11.53;8.10;;;13.50;38.30;;;;;;10403480;28;20339;-72
2022/03/09 13:59:09;;;;;;;11.57;7.97;;;13.40;38.70;;;;;;10401753;28;20240;-73
2022/03/09 14:04:11;;;;;;;11.30;7.73;;;13.50;39.00;;;;;;10392385;28;20282;-74
2022/03/09 14:09:13;;;;;;;13.20;7.97;;;13.60;38.90;;;;;;10401616;28;20220;-72
2022/03/09 14:14:17;;;;;;;13.73;8.50;;;13.50;38.70;;;;;;10387302;28;20241;-74
2022/03/09 14:19:20;;;;;;;11.83;8.23;;;13.50;39.00;;;;;;10388017;28;20699;-73
2022/03/09 14:24:21;;;;;;;10.80;8.73;;;13.40;39.00;;;;;;10395944;28;20276;-74
2022/03/09 14:29:26;;;;;;;12.37;8.43;;;13.40;39.20;;;;;;10387302;28;20700;-73
2022/03/09 14:34:26;;;;;;;9.40;8.07;;;13.50;39.10;;;;;;10399126;28;20819;-73
2022/03/09 14:39:27;;;;;;;11.60;8.97;;;13.50;38.90;;;;;;10395047;28;20351;-75
2022/03/09 14:44:28;;;;;;;11.47;8.33;;;13.50;39.40;;;;;;10386804;28;20243;-74
2022/03/09 14:49:28;;;;;;;11.97;8.53;;;13.30;39.20;;;;;;10400448;28;20726;-73
2022/03/09 14:54:29;;;;;;;11.30;8.07;;;13.30;39.50;;;;;;10388248;28;20641;-75
2022/03/09 14:59:29;;;;;;;12.50;8.50;;;13.40;39.50;;;;;;10397036;28;20228;-74
2022/03/09 15:04:32;;;;;;;14.37;8.63;;;13.40;39.60;;;;;;10398063;28;20228;-73
2022/03/09 15:09:34;;;;;;;12.93;9.07;;;13.30;39.80;;;;;;10387070;28;20709;-74
2022/03/09 15:14:35;;;;;;;17.20;8.20;;;13.30;40.20;;;;;;10391124;28;20316;-72
2022/03/09 15:19:36;;;;;;;12.30;8.97;;;13.30;40.70;;;;;;10387046;28;20772;-72
2022/03/09 15:24:37;;;;;;;12.43;8.57;;;13.30;40.40;;;;;;10399626;28;20235;-73
2022/03/09 15:29:37;;;;;;;11.87;8.50;;;13.10;40.30;;;;;;10386946;28;20309;-72
2022/03/09 15:34:40;;;;;;;12.37;8.53;;;13.10;40.60;;;;;;10400950;28;20259;-74
2022/03/09 15:39:41;;;;;;;11.63;8.67;;;13.00;41.20;;;;;;10396644;28;20221;-73
2022/03/09 15:44:41;;;;;;;11.80;9.43;;;12.80;41.30;;;;;;10398768;28;20296;-73
2022/03/09 15:49:42;;;;;;;11.27;8.33;;;12.70;41.50;;;;;;10385890;28;20337;-73
2022/03/09 15:54:42;;;;;;;12.60;9.30;;;12.60;42.00;;;;;;10391444;28;20224;-73
2022/03/09 15:59:43;;;;;;;11.53;8.33;;;12.50;41.90;;;;;;10398944;28;20308;-74
2022/03/09 16:04:44;;;;;;;12.03;8.90;;;12.30;41.90;;;;;;10395943;28;20270;-73
2022/03/09 16:09:45;;;;;;;12.80;8.43;;;12.20;42.40;;;;;;10391327;28;20235;-73
2022/03/09 16:14:45;;;;;;;12.17;8.70;;;12.10;42.40;;;;;;10383471;28;20212;-73
2022/03/09 16:19:46;;;;;;;15.40;8.20;;;11.90;42.90;;;;;;10382748;28;20309;-73
2022/03/09 16:24:49;;;;;;;10.17;8.63;;;11.80;43.30;;;;;;10392283;28;20220;-73
2022/03/09 16:29:50;;;;;;;11.40;8.17;;;11.60;43.80;;;;;;10394689;28;20217;-72
2022/03/09 16:34:54;;;;;;;11.80;8.20;;;11.50;44.20;;;;;;10398999;28;20216;-72
2022/03/09 16:39:55;;;;;;;11.13;8.80;;;11.30;44.70;;;;;;10395027;28;20618;-73
2022/03/09 16:44:56;;;;;;;13.50;8.73;;;11.20;45.00;;;;;;10394524;28;20285;-72
2022/03/09 16:49:59;;;;;;;11.83;8.47;;;11.00;45.40;;;;;;10380726;28;20640;-72
2022/03/09 16:55:01;;;;;;;10.63;8.20;;;10.90;46.00;;;;;;10384163;28;20303;-73
2022/03/09 17:00:05;;;;;;;12.03;7.90;;;10.80;46.60;;;;;;10386320;28;20255;-74
2022/03/09 17:05:06;;;;;;;9.63;7.80;;;10.50;47.20;;;;;;10397928;28;20236;-74
2022/03/09 17:10:07;;;;;;;11.10;8.37;;;10.30;47.90;;;;;;10385917;28;20239;-72
2022/03/09 17:15:08;;;;;;;11.37;8.70;;;10.10;48.70;;;;;;10388258;28;20181;-72
2022/03/09 17:20:10;;;;;;;16.13;8.93;;;9.80;49.50;;;;;;10388250;28;20182;-73
2022/03/09 17:25:11;;;;;;;12.17;8.63;;;9.50;50.10;;;;;;10392275;28;20201;-73
2022/03/09 17:30:13;;;;;;;14.30;8.70;;;9.30;51.10;;;;;;10389085;28;20870;-73
2022/03/09 17:35:13;;;;;;;11.67;8.73;;;9.10;51.90;;;;;;10394101;28;20239;-72
2022/03/09 17:40:14;;;;;;;13.73;8.40;;;8.90;52.70;;;;;;10403117;28;20691;-72
2022/03/09 17:45:15;;;;;;;12.63;7.93;;;8.70;53.20;;;;;;10396890;28;20303;-72
2022/03/09 17:50:18;;;;;;;15.10;10.77;;;8.50;53.60;;;;;;10389149;28;20263;-73
2022/03/09 17:55:19;;;;;;;19.00;13.17;;;8.40;55.10;;;;;;10399475;28;20255;-73
2022/03/09 18:00:20;;;;;;;22.07;13.60;;;8.40;56.50;;;;;;10406590;28;20213;-73
2022/03/09 18:05:21;;;;;;;16.30;11.50;;;8.40;56.50;;;;;;10413867;28;20235;-74
2022/03/09 18:10:23;;;;;;;17.20;12.07;;;8.30;56.50;;;;;;10404892;28;20273;-72
2022/03/09 18:15:24;;;;;;;18.57;12.23;;;8.30;56.50;;;;;;10397760;28;20180;-73
2022/03/09 18:20:26;;;;;;;17.87;10.73;;;8.10;56.30;;;;;;10390764;28;20248;-72
2022/03/09 18:25:27;;;;;;;19.63;12.67;;;8.10;57.30;;;;;;10391596;28;20715;-72
2022/03/09 18:30:27;;;;;;;16.93;12.30;;;8.00;57.90;;;;;;10392484;28;20346;-73
2022/03/09 18:35:28;;;;;;;25.17;17.60;;;7.90;58.70;;;;;;10395884;28;20688;-73
2022/03/09 18:40:29;;;;;;;27.23;17.93;;;7.80;57.90;;;;;;10390096;28;20595;-73
2022/03/09 18:45:31;;;;;;;24.73;15.60;;;7.80;59.10;;;;;;10391864;28;20627;-73
2022/03/09 18:50:34;;;;;;;27.13;15.53;;;7.70;59.80;;;;;;10389970;28;20217;-73
2022/03/09 18:55:35;;;;;;;28.50;17.70;;;7.60;60.20;;;;;;10392938;28;20232;-72
2022/03/09 19:00:36;;;;;;;19.10;14.50;;;7.60;61.80;;;;;;10389053;28;20239;-73
2022/03/09 19:05:37;;;;;;;17.93;12.97;;;7.50;59.60;;;;;;10394581;28;20225;-74
2022/03/09 19:10:37;;;;;;;17.17;12.60;;;7.40;58.40;;;;;;10392999;28;20346;-73
2022/03/09 19:15:38;;;;;;;27.13;15.90;;;7.40;58.00;;;;;;10385931;28;20372;-73
2022/03/09 19:20:39;;;;;;;18.97;13.83;;;7.50;60.70;;;;;;10392385;28;20220;-73
2022/03/09 19:25:40;;;;;;;21.83;13.53;;;7.40;61.40;;;;;;10388024;28;20728;-74
2022/03/09 19:30:41;;;;;;;21.17;14.17;;;7.30;61.90;;;;;;10395521;28;20216;-72
2022/03/09 19:35:41;;;;;;;14.00;10.97;;;7.20;62.50;;;;;;10406047;28;20286;-73
2022/03/09 19:40:42;;;;;;;18.33;11.70;;;7.10;62.20;;;;;;10388947;28;20303;-72
2022/03/09 19:45:43;;;;;;;23.53;12.90;;;6.90;62.30;;;;;;10396798;28;20599;-73
2022/03/09 19:50:43;;;;;;;17.73;12.07;;;6.80;63.10;;;;;;10393304;28;20296;-73
2022/03/09 19:55:44;;;;;;;23.97;17.90;;;6.80;62.40;;;;;;10391977;28;20283;-72
2022/03/09 20:00:45;;;;;;;22.80;14.20;;;6.70;64.40;;;;;;10403221;28;20304;-74
2022/03/09 20:05:46;;;;;;;17.40;12.20;;;6.50;65.20;;;;;;10395498;28;20229;-74
2022/03/09 20:10:46;;;;;;;20.97;13.73;;;6.50;65.50;;;;;;10394352;28;20209;-73
2022/03/09 20:15:50;;;;;;;17.73;11.80;;;6.50;66.20;;;;;;10384134;28;20220;-72
2022/03/09 20:20:52;;;;;;;25.40;16.00;;;6.40;65.60;;;;;;10382504;28;20220;-73
2022/03/09 20:25:53;;;;;;;21.30;13.70;;;6.30;66.30;;;;;;10389735;28;20221;-73
2022/03/09 20:30:54;;;;;;;22.73;13.10;;;6.40;65.90;;;;;;10383545;28;20213;-73
2022/03/09 20:35:54;;;;;;;22.93;15.30;;;6.40;65.70;;;;;;10390621;28;20316;-73
2022/03/09 20:40:55;;;;;;;20.70;13.37;;;6.50;66.00;;;;;;10384648;28;20216;-73
2022/03/09 20:45:57;;;;;;;21.07;12.20;;;6.40;65.50;;;;;;10389783;28;20212;-74
2022/03/09 20:50:58;;;;;;;21.33;13.40;;;6.40;65.50;;;;;;10382851;28;20209;-73
2022/03/09 20:55:58;;;;;;;17.80;12.30;;;6.30;66.00;;;;;;10388534;28;20217;-73
2022/03/09 21:01:00;;;;;;;18.57;12.60;;;6.30;65.60;;;;;;10383830;28;20220;-74
2022/03/09 21:06:01;;;;;;;16.87;12.20;;;6.30;65.90;;;;;;10390448;28;20205;-74
2022/03/09 21:11:04;;;;;;;20.90;13.50;;;6.30;65.70;;;;;;10401020;28;20296;-73
2022/03/09 21:16:05;;;;;;;19.23;13.07;;;6.30;66.50;;;;;;10399293;28;20299;-73
2022/03/09 21:21:05;;;;;;;23.03;13.70;;;6.10;66.50;;;;;;10398020;28;20220;-75
2022/03/09 21:26:06;;;;;;;20.63;13.30;;;6.00;67.30;;;;;;10399450;28;20748;-74
2022/03/09 21:31:07;;;;;;;23.67;14.50;;;5.90;67.80;;;;;;10394894;28;20304;-74
2022/03/09 21:36:07;;;;;;;27.00;14.43;;;5.80;68.70;;;;;;10396682;28;20350;-74
2022/03/09 21:41:08;;;;;;;19.30;12.50;;;5.70;68.90;;;;;;10399505;28;20215;-74
2022/03/09 21:46:09;;;;;;;21.10;13.17;;;5.60;68.80;;;;;;10404947;28;20208;-74
2022/03/09 21:51:09;;;;;;;21.27;12.93;;;5.50;68.60;;;;;;10404082;28;20207;-74
2022/03/09 21:56:10;;;;;;;18.57;12.07;;;5.50;68.50;;;;;;10397154;28;20592;-74
2022/03/09 22:01:11;;;;;;;18.07;12.17;;;5.50;68.30;;;;;;10396352;28;20699;-74
2022/03/09 22:06:12;;;;;;;18.30;12.50;;;5.40;68.50;;;;;;10386975;28;20286;-74
2022/03/09 22:11:13;;;;;;;21.43;13.30;;;5.40;68.80;;;;;;10401848;28;20217;-74
2022/03/09 22:16:13;;;;;;;19.47;12.57;;;5.40;68.80;;;;;;10391812;28;20359;-73
2022/03/09 22:21:14;;;;;;;18.17;12.23;;;5.40;68.40;;;;;;10394476;28;20220;-73
2022/03/09 22:26:14;;;;;;;18.27;11.90;;;5.30;68.50;;;;;;10393066;28;20217;-73
2022/03/09 22:31:15;;;;;;;17.67;12.30;;;5.30;68.30;;;;;;10391263;28;20339;-74
2022/03/09 22:36:19;;;;;;;19.73;13.20;;;5.10;69.00;;;;;;10399290;28;20231;-73
2022/03/09 22:41:20;;;;;;;19.90;13.30;;;5.00;70.30;;;;;;10395308;28;20696;-73
2022/03/09 22:46:21;;;;;;;21.53;13.20;;;4.90;71.20;;;;;;10390698;28;20209;-73
2022/03/09 22:51:21;;;;;;;21.77;14.37;;;4.90;71.40;;;;;;10390892;28;20220;-73
2022/03/09 22:56:22;;;;;;;20.90;13.50;;;4.80;71.20;;;;;;10386568;28;20227;-73
2022/03/09 23:01:29;;;;;;;19.20;12.27;;;4.80;71.50;;;;;;10397181;28;20229;-73
2022/03/09 23:06:31;;;;;;;17.97;11.10;;;4.80;70.70;;;;;;10398558;28;20240;-74
2022/03/09 23:11:32;;;;;;;15.40;10.77;;;4.80;69.70;;;;;;10391616;28;20252;-73
2022/03/09 23:16:32;;;;;;;17.73;11.73;;;4.80;70.00;;;;;;10385637;28;20707;-73
2022/03/09 23:21:33;;;;;;;17.27;11.77;;;4.70;70.30;;;;;;10387994;28;20225;-73
2022/03/09 23:26:33;;;;;;;20.03;12.30;;;4.70;71.50;;;;;;10391616;28;20227;-74
2022/03/09 23:31:34;;;;;;;14.73;10.40;;;4.70;71.30;;;;;;10392929;28;20610;-73
2022/03/09 23:36:34;;;;;;;17.80;9.83;;;4.70;70.70;;;;;;10390595;28;20401;-73
2022/03/09 23:41:35;;;;;;;14.77;9.77;;;4.70;69.20;;;;;;10397520;28;20231;-73
2022/03/09 23:46:36;;;;;;;14.97;11.20;;;4.70;68.60;;;;;;10397372;28;20313;-72
2022/03/09 23:51:37;;;;;;;20.17;13.70;;;4.80;69.40;;;;;;10399771;28;20216;-74
2022/03/09 23:56:37;;;;;;;16.43;11.87;;;4.70;72.20;;;;;;10390965;28;20224;-73
